Time;durP1;ratioP1;P1;durP2;ratioP2;P2;SDS_P1;SDS_P2;PMS_P1;PMS_P2;Temp;Humidity;BMP_temperature;BMP_pressure;BME280_temperature;BME280_humidity;BME280_pressure;Samples;Min_cycle;Max_cycle;Signal;HPM_P1;HPM_P2
2023/05/09 00:00:43;;;;;;;13.05;10.60;;;15.90;99.90;;;;;;7378098;19;20138;-77
2023/05/09 00:03:10;;;;;;;12.38;9.95;;;16.10;99.90;;;;;;7391293;19;20151;-76
2023/05/09 00:05:36;;;;;;;12.88;9.88;;;16.20;99.90;;;;;;7389236;19;20143;-76
2023/05/09 00:08:02;;;;;;;14.48;10.60;;;16.40;99.90;;;;;;7388666;19;20142;-77
2023/05/09 00:10:27;;;;;;;12.45;10.02;;;16.50;99.90;;;;;;7380781;19;20154;-77
2023/05/09 00:12:53;;;;;;;14.52;10.23;;;16.20;99.90;;;;;;7386649;19;20135;-76
2023/05/09 00:15:19;;;;;;;12.77;9.35;;;16.20;99.90;;;;;;7388355;19;20130;-77
2023/05/09 00:17:45;;;;;;;13.63;10.70;;;16.20;99.90;;;;;;7381035;19;20980;-77
2023/05/09 00:20:11;;;;;;;13.80;9.13;;;16.40;99.90;;;;;;7375378;19;20135;-77
2023/05/09 00:22:41;;;;;;;11.32;9.40;;;16.40;99.90;;;;;;7374245;19;20154;-78
2023/05/09 00:25:08;;;;;;;13.68;9.68;;;16.40;99.90;;;;;;7386379;19;20127;-76
2023/05/09 00:27:34;;;;;;;12.60;10.00;;;16.30;99.90;;;;;;7386246;19;20163;-76
2023/05/09 00:30:00;;;;;;;12.13;9.50;;;16.10;99.90;;;;;;7373070;19;20150;-77
2023/05/09 00:32:28;;;;;;;11.75;9.18;;;16.10;99.90;;;;;;7389628;19;20143;-76
2023/05/09 00:34:53;;;;;;;10.48;8.65;;;16.10;99.90;;;;;;7387021;19;20138;-77
2023/05/09 00:37:20;;;;;;;14.02;9.50;;;16.30;99.90;;;;;;7380699;19;20202;-76
2023/05/09 00:39:47;;;;;;;11.23;9.40;;;16.30;99.90;;;;;;7387237;19;21146;-77
2023/05/09 00:42:13;;;;;;;11.48;9.52;;;16.30;99.90;;;;;;7389897;19;20134;-76
2023/05/09 00:44:38;;;;;;;14.35;11.10;;;16.30;99.90;;;;;;7386436;19;20163;-76
2023/05/09 00:47:05;;;;;;;14.13;11.00;;;16.10;99.90;;;;;;7374677;19;20586;-78
2023/05/09 00:49:31;;;;;;;13.02;10.43;;;16.20;99.90;;;;;;7388928;19;20182;-77
2023/05/09 00:51:57;;;;;;;12.55;10.20;;;16.20;99.90;;;;;;7387372;19;20192;-76
2023/05/09 00:54:23;;;;;;;12.55;10.68;;;16.20;99.90;;;;;;7388797;19;20135;-76
2023/05/09 00:56:50;;;;;;;13.60;10.35;;;16.20;99.90;;;;;;7389506;19;20190;-76
2023/05/09 00:59:16;;;;;;;16.95;11.73;;;16.30;99.90;;;;;;7382502;19;20157;-76
2023/05/09 01:01:43;;;;;;;15.00;12.00;;;16.30;99.90;;;;;;7382895;19;20149;-75
2023/05/09 01:04:10;;;;;;;16.05;11.90;;;16.40;99.90;;;;;;7388603;19;20131;-75
2023/05/09 01:06:44;;;;;;;16.33;12.95;;;16.50;99.90;;;;;;7372409;19;20133;-75
2023/05/09 01:09:31;;;;;;;17.13;13.50;;;16.30;99.90;;;;;;7382557;19;20131;-76
2023/05/09 01:12:16;;;;;;;14.45;11.43;;;16.00;99.90;;;;;;7377729;19;20155;-76
2023/05/09 01:15:10;;;;;;;14.15;11.40;;;16.00;99.90;;;;;;7386504;19;20139;-76
2023/05/09 01:18:14;;;;;;;17.80;11.80;;;16.00;99.90;;;;;;7377615;19;20143;-76
2023/05/09 01:20:55;;;;;;;15.85;12.15;;;16.10;99.90;;;;;;7377882;19;20591;-76
2023/05/09 01:23:43;;;;;;;15.73;12.05;;;15.70;99.90;;;;;;7384897;19;20482;-76
2023/05/09 01:26:21;;;;;;;12.55;10.77;;;15.60;99.90;;;;;;7370382;19;20459;-76
2023/05/09 01:29:22;;;;;;;15.13;12.23;;;15.50;99.90;;;;;;7386592;19;20181;-76
2023/05/09 01:31:49;;;;;;;16.02;12.65;;;15.50;99.90;;;;;;7382979;19;20131;-75
2023/05/09 01:34:16;;;;;;;16.00;12.50;;;15.70;99.90;;;;;;7372671;19;20151;-76
2023/05/09 01:36:43;;;;;;;16.10;11.80;;;15.50;99.90;;;;;;7387236;19;20139;-76
2023/05/09 01:39:13;;;;;;;15.20;13.00;;;15.30;99.90;;;;;;7389259;19;20167;-76
2023/05/09 01:41:39;;;;;;;15.63;12.30;;;15.10;99.90;;;;;;7390377;19;20210;-76
2023/05/09 01:44:09;;;;;;;17.13;11.85;;;15.00;99.90;;;;;;7376992;19;20775;-75
2023/05/09 01:46:36;;;;;;;17.60;12.60;;;15.00;99.90;;;;;;7387248;19;20137;-76
2023/05/09 01:49:04;;;;;;;16.60;12.88;;;15.00;99.90;;;;;;7380384;19;20139;-76
2023/05/09 01:51:31;;;;;;;17.08;12.55;;;15.00;99.90;;;;;;7388224;19;20173;-76
2023/05/09 01:53:58;;;;;;;16.10;12.07;;;15.10;99.90;;;;;;7382955;19;20150;-76
2023/05/09 01:56:26;;;;;;;16.02;11.85;;;15.30;99.90;;;;;;7380048;19;20782;-77
2023/05/09 01:58:54;;;;;;;17.17;12.88;;;15.40;99.90;;;;;;7382315;19;20154;-76
2023/05/09 02:01:22;;;;;;;17.30;12.05;;;15.60;99.90;;;;;;7376988;19;20148;-76
2023/05/09 02:03:53;;;;;;;18.88;13.32;;;15.70;99.90;;;;;;7386761;19;20131;-76
2023/05/09 02:06:21;;;;;;;16.58;13.27;;;15.70;99.90;;;;;;7383980;19;20551;-76
2023/05/09 02:08:47;;;;;;;16.25;12.07;;;15.50;99.90;;;;;;7386577;19;20546;-77
2023/05/09 02:11:13;;;;;;;17.73;13.95;;;15.70;99.90;;;;;;7384704;19;20460;-76
2023/05/09 02:13:39;;;;;;;15.25;12.60;;;15.60;99.90;;;;;;7371770;19;20130;-76
2023/05/09 02:16:06;;;;;;;18.92;13.30;;;15.60;99.90;;;;;;7390457;19;20165;-75
2023/05/09 02:18:33;;;;;;;15.80;12.57;;;15.80;99.90;;;;;;7387176;19;20183;-75
2023/05/09 02:20:59;;;;;;;14.88;12.55;;;15.80;99.90;;;;;;7389647;19;20636;-77
2023/05/09 02:23:25;;;;;;;15.80;12.70;;;15.70;99.90;;;;;;7389803;19;20229;-76
2023/05/09 02:25:53;;;;;;;16.38;12.90;;;15.90;99.90;;;;;;7386619;19;20209;-77
2023/05/09 02:28:21;;;;;;;14.40;11.88;;;16.00;99.90;;;;;;7386563;19;20796;-76
2023/05/09 02:30:48;;;;;;;14.75;11.85;;;15.80;99.90;;;;;;7389651;19;20206;-76
2023/05/09 02:33:14;;;;;;;16.02;13.10;;;16.00;99.90;;;;;;7388486;19;20206;-76
2023/05/09 02:35:44;;;;;;;16.15;12.68;;;16.20;99.90;;;;;;7388385;19;20232;-77
2023/05/09 02:38:11;;;;;;;18.60;13.38;;;16.10;99.90;;;;;;7388054;19;20138;-76
2023/05/09 02:40:38;;;;;;;16.63;12.23;;;16.00;99.90;;;;;;7388011;19;20494;-76
2023/05/09 02:43:04;;;;;;;14.95;12.15;;;15.60;99.90;;;;;;7386043;19;20135;-76
2023/05/09 02:45:30;;;;;;;15.30;12.13;;;15.70;99.90;;;;;;7387048;19;20160;-76
2023/05/09 02:47:56;;;;;;;17.30;13.35;;;15.70;99.90;;;;;;7387224;19;20166;-75
2023/05/09 02:50:22;;;;;;;17.25;14.05;;;16.00;99.90;;;;;;7387693;19;20134;-76
2023/05/09 02:52:48;;;;;;;16.23;12.82;;;16.00;99.90;;;;;;7388817;19;20467;-76
2023/05/09 02:55:14;;;;;;;14.98;12.35;;;15.80;99.90;;;;;;7386801;19;20536;-77
2023/05/09 02:57:39;;;;;;;16.83;13.25;;;15.90;99.90;;;;;;7388535;19;20142;-76
2023/05/09 03:00:09;;;;;;;16.65;12.98;;;15.70;99.90;;;;;;7388352;19;20138;-77
2023/05/09 03:02:38;;;;;;;15.23;13.05;;;15.80;99.90;;;;;;7384819;19;20139;-76
2023/05/09 03:05:04;;;;;;;17.92;14.25;;;15.90;99.90;;;;;;7385961;19;20142;-76
2023/05/09 03:07:30;;;;;;;18.35;14.20;;;15.90;99.90;;;;;;7387404;19;20498;-76
2023/05/09 03:09:56;;;;;;;16.25;13.02;;;15.70;99.90;;;;;;7388032;19;20135;-76
2023/05/09 03:12:21;;;;;;;20.15;13.55;;;15.70;99.90;;;;;;7387024;19;20138;-76
2023/05/09 03:14:47;;;;;;;21.40;13.65;;;15.70;99.90;;;;;;7387222;19;20587;-77
2023/05/09 03:17:16;;;;;;;22.40;13.40;;;15.70;99.90;;;;;;7390573;19;20169;-76
2023/05/09 03:19:42;;;;;;;20.60;13.90;;;15.60;99.90;;;;;;7392131;19;20147;-76
2023/05/09 03:22:08;;;;;;;19.05;13.68;;;15.60;99.90;;;;;;7391793;19;20146;-76
2023/05/09 03:24:33;;;;;;;15.57;12.80;;;15.70;99.90;;;;;;7394025;19;20150;-76
2023/05/09 03:26:59;;;;;;;17.15;13.95;;;15.80;99.90;;;;;;7394855;19;20135;-75
2023/05/09 03:29:25;;;;;;;16.70;13.00;;;15.50;99.90;;;;;;7390859;19;20642;-77
2023/05/09 03:31:50;;;;;;;17.58;13.45;;;15.20;99.90;;;;;;7391021;19;20161;-76
2023/05/09 03:34:16;;;;;;;16.65;12.93;;;15.10;99.90;;;;;;7393978;19;20210;-76
2023/05/09 03:36:43;;;;;;;16.88;12.80;;;15.20;99.90;;;;;;7387615;19;20135;-76
2023/05/09 03:39:09;;;;;;;17.42;13.10;;;15.20;99.90;;;;;;7392149;19;20154;-76
2023/05/09 03:41:36;;;;;;;16.45;13.07;;;15.40;99.90;;;;;;7392937;19;20238;-76
2023/05/09 03:44:02;;;;;;;18.63;13.05;;;15.60;99.90;;;;;;7391992;19;20246;-75
2023/05/09 03:46:28;;;;;;;18.15;13.18;;;15.70;99.90;;;;;;7392026;19;20142;-75
2023/05/09 03:48:54;;;;;;;15.60;13.15;;;15.80;99.90;;;;;;7394200;19;20142;-76
2023/05/09 03:51:20;;;;;;;21.33;13.90;;;15.80;99.90;;;;;;7393166;19;20161;-75
2023/05/09 03:53:46;;;;;;;16.20;13.18;;;15.80;99.90;;;;;;7391539;19;20142;-77
2023/05/09 03:56:12;;;;;;;16.77;13.90;;;15.80;99.90;;;;;;7393242;19;20147;-76
2023/05/09 03:58:38;;;;;;;17.30;13.18;;;16.00;99.90;;;;;;7392625;19;20139;-76
2023/05/09 04:01:04;;;;;;;21.92;14.68;;;16.00;99.90;;;;;;7391844;19;20592;-75
2023/05/09 04:03:30;;;;;;;19.15;14.52;;;16.00;99.90;;;;;;7392579;19;20161;-76
2023/05/09 04:05:56;;;;;;;21.40;14.48;;;16.10;99.90;;;;;;7393138;19;20206;-75
2023/05/09 04:08:22;;;;;;;17.95;13.93;;;16.10;99.90;;;;;;7391654;19;20501;-75
2023/05/09 04:10:49;;;;;;;17.77;13.35;;;16.10;99.90;;;;;;7392069;19;20170;-75
2023/05/09 04:13:15;;;;;;;17.02;13.32;;;16.00;99.90;;;;;;7391391;19;20165;-76
2023/05/09 04:15:41;;;;;;;17.52;13.82;;;16.00;99.90;;;;;;7389490;19;20167;-76
2023/05/09 04:18:07;;;;;;;17.30;13.27;;;16.00;99.90;;;;;;7391596;19;20154;-76
2023/05/09 04:20:33;;;;;;;17.17;13.05;;;16.10;99.90;;;;;;7391936;19;20218;-75
2023/05/09 04:22:59;;;;;;;16.85;13.18;;;16.10;99.90;;;;;;7393641;19;20150;-76
2023/05/09 04:25:25;;;;;;;16.33;12.30;;;16.10;99.90;;;;;;7390228;19;20146;-75
2023/05/09 04:27:51;;;;;;;17.33;12.07;;;15.90;99.90;;;;;;7389788;19;20155;-76
2023/05/09 04:30:17;;;;;;;16.65;11.65;;;15.50;99.90;;;;;;7390474;19;20157;-75
2023/05/09 04:32:46;;;;;;;15.55;11.90;;;15.70;99.90;;;;;;7390442;19;20139;-76
2023/05/09 04:35:12;;;;;;;14.73;11.85;;;15.80;99.90;;;;;;7392762;19;20579;-76
2023/05/09 04:37:38;;;;;;;16.95;13.27;;;15.90;99.90;;;;;;7390585;19;20155;-76
2023/05/09 04:40:05;;;;;;;17.77;12.73;;;15.90;99.90;;;;;;7389388;19;20149;-76
2023/05/09 04:42:34;;;;;;;15.70;12.48;;;16.00;99.90;;;;;;7389173;19;20131;-76
2023/05/09 04:45:00;;;;;;;16.83;12.80;;;15.90;99.90;;;;;;7387399;19;20150;-76
2023/05/09 04:47:26;;;;;;;17.15;13.18;;;15.70;99.90;;;;;;7391601;19;20143;-76
2023/05/09 04:49:52;;;;;;;18.05;13.45;;;15.90;99.90;;;;;;7388436;19;20139;-75
2023/05/09 04:52:17;;;;;;;17.15;13.38;;;16.10;99.90;;;;;;7391453;19;20151;-75
2023/05/09 04:54:43;;;;;;;17.83;13.05;;;16.20;99.90;;;;;;7391041;19;20145;-76
2023/05/09 04:57:09;;;;;;;16.58;13.60;;;16.30;99.90;;;;;;7388198;19;20261;-74
2023/05/09 04:59:35;;;;;;;16.42;12.70;;;16.10;99.90;;;;;;7388334;19;20138;-76
2023/05/09 05:02:01;;;;;;;17.63;13.27;;;16.20;99.90;;;;;;7390954;19;20158;-76
2023/05/09 05:04:27;;;;;;;16.65;12.95;;;16.30;99.90;;;;;;7387180;19;20603;-77
2023/05/09 05:06:53;;;;;;;17.35;13.32;;;16.40;99.90;;;;;;7388089;19;20135;-75
2023/05/09 05:09:19;;;;;;;19.63;14.20;;;16.50;99.90;;;;;;7389788;19;20161;-75
2023/05/09 05:11:45;;;;;;;20.33;14.65;;;16.50;99.90;;;;;;7389281;19;20150;-75
2023/05/09 05:14:10;;;;;;;19.52;15.13;;;16.60;99.90;;;;;;7389084;19;20161;-76
2023/05/09 05:16:36;;;;;;;20.10;14.43;;;16.60;99.90;;;;;;7389081;19;20134;-76
2023/05/09 05:19:02;;;;;;;19.92;13.32;;;16.50;99.90;;;;;;7386772;19;20154;-76
2023/05/09 05:21:28;;;;;;;18.30;13.55;;;16.60;99.90;;;;;;7388970;19;20227;-76
2023/05/09 05:23:55;;;;;;;17.23;12.73;;;16.40;99.90;;;;;;7385843;19;20145;-75
2023/05/09 05:26:21;;;;;;;20.40;14.07;;;16.50;99.90;;;;;;7389203;19;20142;-76
2023/05/09 05:28:47;;;;;;;18.13;14.43;;;16.50;99.90;;;;;;7389254;19;20174;-76
2023/05/09 05:31:12;;;;;;;17.60;14.18;;;16.60;99.90;;;;;;7385121;19;20622;-75
2023/05/09 05:33:38;;;;;;;18.60;13.50;;;16.60;99.90;;;;;;7388008;19;20173;-77
2023/05/09 05:36:04;;;;;;;18.48;12.77;;;16.50;99.90;;;;;;7388484;19;20135;-76
2023/05/09 05:38:29;;;;;;;17.40;13.00;;;16.40;99.90;;;;;;7390152;19;20142;-75
2023/05/09 05:40:55;;;;;;;18.20;13.35;;;16.60;99.90;;;;;;7388816;19;20171;-75
2023/05/09 05:43:21;;;;;;;15.88;13.02;;;16.60;99.90;;;;;;7388271;19;20141;-75
2023/05/09 05:45:47;;;;;;;18.65;14.38;;;16.60;99.90;;;;;;7388211;19;20237;-75
2023/05/09 05:48:12;;;;;;;17.08;12.50;;;16.40;99.90;;;;;;7389893;19;20222;-75
2023/05/09 05:50:38;;;;;;;15.52;12.70;;;16.50;99.90;;;;;;7388945;19;20177;-75
2023/05/09 05:53:05;;;;;;;19.27;13.48;;;16.60;99.90;;;;;;7386606;19;20587;-75
2023/05/09 05:55:31;;;;;;;18.00;12.65;;;16.70;99.90;;;;;;7388909;19;20138;-74
2023/05/09 05:57:56;;;;;;;20.88;13.45;;;16.80;99.90;;;;;;7386828;19;20497;-74
2023/05/09 06:00:22;;;;;;;15.88;12.82;;;16.80;99.90;;;;;;7389147;19;20213;-74
2023/05/09 06:02:48;;;;;;;16.65;13.45;;;16.80;99.90;;;;;;7387908;19;20229;-75
2023/05/09 06:05:14;;;;;;;17.58;13.27;;;16.90;99.90;;;;;;7383948;19;20227;-74
2023/05/09 06:07:43;;;;;;;17.42;13.18;;;16.90;99.90;;;;;;7387334;19;20159;-75
2023/05/09 06:10:09;;;;;;;18.30;12.75;;;17.00;99.90;;;;;;7388195;19;20142;-76
2023/05/09 06:12:35;;;;;;;18.23;14.02;;;17.20;99.90;;;;;;7385710;19;20142;-75
2023/05/09 06:15:03;;;;;;;18.13;13.70;;;17.30;99.90;;;;;;7384642;19;20230;-74
2023/05/09 06:17:29;;;;;;;15.88;12.65;;;17.50;99.90;;;;;;7386942;19;20205;-74
2023/05/09 06:19:55;;;;;;;16.63;12.95;;;17.60;99.90;;;;;;7370675;19;20792;-73
2023/05/09 06:22:20;;;;;;;16.60;12.27;;;17.80;99.90;;;;;;7386639;19;20166;-74
2023/05/09 06:24:46;;;;;;;20.00;14.25;;;18.20;99.90;;;;;;7374994;19;20285;-75
2023/05/09 06:27:12;;;;;;;18.27;12.70;;;19.00;99.90;;;;;;7386458;19;20166;-75
2023/05/09 06:29:38;;;;;;;16.75;12.80;;;19.70;99.90;;;;;;7388498;19;20138;-75
2023/05/09 06:32:04;;;;;;;16.88;13.30;;;19.60;99.90;;;;;;7386255;19;20139;-75
2023/05/09 06:34:30;;;;;;;14.45;11.73;;;19.50;99.90;;;;;;7388925;19;20550;-75
2023/05/09 06:36:55;;;;;;;15.85;11.80;;;19.90;99.90;;;;;;7385673;19;20187;-76
2023/05/09 06:39:21;;;;;;;17.15;12.75;;;19.80;99.90;;;;;;7380185;19;20213;-75
2023/05/09 06:41:47;;;;;;;19.75;12.55;;;19.50;99.90;;;;;;7371046;19;20162;-76
2023/05/09 06:44:12;;;;;;;15.75;12.65;;;19.30;99.90;;;;;;7381014;19;20149;-75
2023/05/09 06:46:38;;;;;;;17.45;13.05;;;19.10;99.90;;;;;;7386403;19;20209;-74
2023/05/09 06:49:04;;;;;;;16.67;12.07;;;18.90;99.90;;;;;;7387767;19;20142;-76
2023/05/09 06:51:30;;;;;;;16.48;13.30;;;18.90;99.90;;;;;;7391679;19;20154;-75
2023/05/09 06:53:56;;;;;;;18.75;12.32;;;19.10;99.90;;;;;;7400184;19;20143;-75
2023/05/09 06:56:24;;;;;;;14.70;11.82;;;19.50;99.90;;;;;;7399789;19;20574;-76
2023/05/09 06:58:50;;;;;;;12.52;10.93;;;19.70;99.90;;;;;;7400887;19;20138;-75
2023/05/09 07:01:16;;;;;;;14.52;11.60;;;19.70;99.90;;;;;;7397036;19;20150;-75
2023/05/09 07:03:42;;;;;;;17.90;12.27;;;19.70;99.90;;;;;;7397490;19;21062;-75
2023/05/09 07:06:08;;;;;;;14.70;11.18;;;19.70;99.90;;;;;;7400615;19;20135;-75
2023/05/09 07:08:34;;;;;;;14.55;12.45;;;19.90;99.90;;;;;;7398823;19;20500;-75
2023/05/09 07:11:00;;;;;;;15.73;11.80;;;19.90;99.90;;;;;;7391968;19;20489;-75
2023/05/09 07:13:26;;;;;;;16.85;12.48;;;20.00;99.90;;;;;;7397829;19;20138;-75
2023/05/09 07:15:51;;;;;;;15.95;11.80;;;19.90;99.90;;;;;;7397912;19;20166;-75
2023/05/09 07:18:17;;;;;;;15.32;11.80;;;19.70;99.90;;;;;;7397042;19;20186;-76
2023/05/09 07:20:43;;;;;;;15.23;11.23;;;19.50;99.90;;;;;;7397596;19;20146;-74
2023/05/09 07:23:09;;;;;;;16.63;11.63;;;19.50;99.90;;;;;;7390148;19;20436;-74
2023/05/09 07:25:34;;;;;;;15.05;11.82;;;19.90;99.90;;;;;;7396872;19;20126;-74
2023/05/09 07:28:02;;;;;;;14.15;11.43;;;20.20;99.90;;;;;;7396209;19;20151;-76
2023/05/09 07:30:27;;;;;;;17.20;12.05;;;20.60;99.90;;;;;;7393428;19;20130;-74
2023/05/09 07:32:53;;;;;;;13.27;10.55;;;20.90;99.90;;;;;;7397889;19;20138;-74
2023/05/09 07:35:19;;;;;;;14.50;10.55;;;21.30;99.90;;;;;;7393311;19;20137;-75
2023/05/09 07:37:45;;;;;;;13.82;10.50;;;21.60;99.90;;;;;;7395686;19;20127;-74
2023/05/09 07:40:11;;;;;;;12.88;10.30;;;21.80;99.90;;;;;;7394778;19;20149;-74
2023/05/09 07:42:37;;;;;;;12.52;9.95;;;21.80;99.90;;;;;;7395666;19;21360;-76
2023/05/09 07:45:05;;;;;;;12.50;10.43;;;22.20;99.90;;;;;;7394430;19;20141;-75
2023/05/09 07:47:31;;;;;;;11.90;9.77;;;22.50;99.90;;;;;;7397245;19;20150;-75
2023/05/09 07:49:57;;;;;;;12.65;10.75;;;22.50;99.90;;;;;;7399258;19;20139;-74
2023/05/09 07:52:23;;;;;;;12.25;9.60;;;22.70;99.90;;;;;;7397442;19;20629;-74
2023/05/09 07:54:49;;;;;;;11.10;9.27;;;23.00;99.90;;;;;;7396763;19;20503;-74
2023/05/09 07:57:15;;;;;;;10.30;9.20;;;23.00;99.90;;;;;;7396973;19;20151;-75
2023/05/09 07:59:41;;;;;;;16.15;10.88;;;22.80;99.90;;;;;;7399579;19;20133;-74
2023/05/09 08:02:07;;;;;;;10.75;9.27;;;22.80;99.90;;;;;;7387978;19;20122;-75
2023/05/09 08:04:36;;;;;;;12.65;10.45;;;22.80;99.90;;;;;;7386693;19;20222;-74
2023/05/09 08:07:03;;;;;;;12.10;9.95;;;22.90;99.90;;;;;;7392256;19;20143;-74
2023/05/09 08:09:29;;;;;;;12.95;10.77;;;23.00;99.90;;;;;;7390573;19;20619;-74
2023/05/09 08:11:54;;;;;;;12.57;10.05;;;23.10;99.90;;;;;;7389782;19;20130;-74
2023/05/09 08:14:20;;;;;;;12.63;9.23;;;23.30;99.90;;;;;;7388573;19;20674;-74
2023/05/09 08:16:46;;;;;;;11.32;8.40;;;23.30;99.90;;;;;;7392223;19;20138;-74
2023/05/09 08:19:12;;;;;;;10.95;9.30;;;23.10;99.90;;;;;;7387861;19;20146;-74
2023/05/09 08:21:38;;;;;;;13.07;9.40;;;23.00;99.90;;;;;;7389025;19;20134;-74
2023/05/09 08:24:06;;;;;;;10.80;8.60;;;22.90;99.90;;;;;;7388666;19;20255;-74
2023/05/09 08:26:33;;;;;;;11.15;8.85;;;22.50;99.90;;;;;;7390695;19;20142;-74
2023/05/09 08:29:00;;;;;;;10.27;8.95;;;22.30;99.90;;;;;;7386284;19;20178;-74
2023/05/09 08:31:26;;;;;;;12.93;9.95;;;22.30;99.90;;;;;;7386045;19;20623;-73
2023/05/09 08:33:51;;;;;;;12.20;9.07;;;22.30;99.90;;;;;;7388484;19;20191;-73
2023/05/09 08:36:17;;;;;;;10.55;8.48;;;22.30;99.90;;;;;;7391564;19;20443;-73
2023/05/09 08:38:43;;;;;;;10.88;9.35;;;22.30;99.90;;;;;;7388315;19;20135;-73
2023/05/09 08:41:09;;;;;;;10.88;9.13;;;22.30;99.90;;;;;;7386623;19;20193;-73
2023/05/09 08:43:37;;;;;;;11.43;8.90;;;22.40;99.90;;;;;;7388911;19;20135;-73
2023/05/09 08:46:09;;;;;;;12.43;10.45;;;22.50;99.90;;;;;;7388617;19;20429;-73
2023/05/09 08:48:37;;;;;;;12.25;10.23;;;22.20;99.90;;;;;;7389844;19;20634;-74
2023/05/09 08:51:05;;;;;;;15.02;11.25;;;22.00;99.90;;;;;;7389520;19;20134;-73
2023/05/09 08:53:31;;;;;;;12.50;10.02;;;21.70;99.90;;;;;;7388312;19;20609;-72
2023/05/09 08:56:00;;;;;;;12.93;10.20;;;21.40;99.90;;;;;;7389003;19;20559;-73
2023/05/09 08:58:26;;;;;;;13.50;10.10;;;21.30;99.90;;;;;;7388031;19;20509;-74
2023/05/09 09:00:54;;;;;;;12.52;10.05;;;21.40;99.90;;;;;;7388338;19;20138;-73
2023/05/09 09:03:20;;;;;;;13.57;9.20;;;21.30;99.90;;;;;;7389794;19;20138;-74
2023/05/09 09:05:46;;;;;;;10.38;9.27;;;21.50;99.90;;;;;;7390219;19;20135;-73
2023/05/09 09:08:14;;;;;;;12.27;9.70;;;21.70;99.90;;;;;;7388971;19;20625;-73
2023/05/09 09:10:47;;;;;;;12.05;9.27;;;21.80;99.90;;;;;;7391158;19;20130;-73
2023/05/09 09:13:14;;;;;;;10.30;8.60;;;21.70;99.90;;;;;;7389878;19;20170;-72
2023/05/09 09:15:42;;;;;;;11.85;9.10;;;21.60;99.90;;;;;;7389146;19;20153;-73
2023/05/09 09:18:11;;;;;;;11.48;9.60;;;21.50;99.90;;;;;;7387629;19;20157;-73
2023/05/09 09:20:47;;;;;;;11.43;9.30;;;21.50;99.90;;;;;;7390365;19;20193;-73
2023/05/09 09:23:17;;;;;;;11.75;9.70;;;21.50;99.90;;;;;;7388862;19;20177;-73
2023/05/09 09:25:49;;;;;;;11.52;9.52;;;21.50;99.90;;;;;;7389187;19;20149;-73
2023/05/09 09:28:14;;;;;;;10.48;8.52;;;21.40;99.90;;;;;;7388511;19;20146;-73
2023/05/09 09:30:47;;;;;;;11.88;8.38;;;21.60;99.90;;;;;;7387175;19;21118;-73
2023/05/09 09:33:22;;;;;;;10.95;8.70;;;21.60;99.90;;;;;;7387858;19;20139;-73
2023/05/09 09:35:54;;;;;;;10.30;8.00;;;21.60;99.90;;;;;;7388293;19;20154;-73
2023/05/09 09:38:22;;;;;;;12.52;8.82;;;21.60;99.90;;;;;;7388468;19;20211;-73
2023/05/09 09:40:51;;;;;;;12.27;9.50;;;21.40;99.90;;;;;;7390134;19;20480;-74
2023/05/09 09:43:17;;;;;;;9.85;7.85;;;21.20;99.90;;;;;;7389879;19;20149;-73
2023/05/09 09:45:50;;;;;;;9.80;8.18;;;21.10;99.90;;;;;;7388468;19;20135;-72
2023/05/09 09:48:15;;;;;;;10.00;8.13;;;21.30;99.90;;;;;;7386617;19;20214;-74
2023/05/09 09:50:47;;;;;;;9.63;8.30;;;21.50;99.90;;;;;;7386248;19;20167;-74
2023/05/09 09:53:13;;;;;;;11.18;7.63;;;21.70;99.90;;;;;;7388514;19;20146;-73
2023/05/09 09:55:52;;;;;;;9.40;7.30;;;21.60;99.90;;;;;;7386429;19;20143;-73
2023/05/09 09:58:23;;;;;;;10.20;7.30;;;21.60;99.90;;;;;;7389948;19;20516;-72
2023/05/09 10:01:09;;;;;;;12.20;7.53;;;21.80;99.90;;;;;;7389573;19;20250;-74
2023/05/09 10:03:45;;;;;;;8.60;7.43;;;21.90;99.90;;;;;;7389787;19;20139;-73
2023/05/09 10:06:13;;;;;;;9.18;7.53;;;21.70;99.90;;;;;;7386433;19;20165;-74
2023/05/09 10:08:40;;;;;;;8.13;6.95;;;21.60;99.90;;;;;;7389520;19;20162;-74
2023/05/09 10:11:06;;;;;;;11.32;8.43;;;21.70;99.90;;;;;;7386159;19;20135;-74
2023/05/09 10:13:35;;;;;;;9.13;7.28;;;21.90;99.90;;;;;;7387213;19;20173;-73
2023/05/09 10:16:04;;;;;;;10.52;7.72;;;21.90;99.90;;;;;;7386587;19;20463;-71
2023/05/09 10:18:31;;;;;;;10.07;7.38;;;21.80;99.90;;;;;;7385064;19;20170;-73
2023/05/09 10:21:02;;;;;;;6.97;6.28;;;22.00;99.90;;;;;;7386268;19;20134;-73
2023/05/09 10:23:30;;;;;;;7.00;6.30;;;21.90;99.90;;;;;;7386606;19;20543;-72
2023/05/09 10:26:20;;;;;;;8.15;6.88;;;22.00;99.90;;;;;;7386505;19;20166;-73
2023/05/09 10:28:48;;;;;;;9.77;8.30;;;22.00;99.90;;;;;;7386342;19;20135;-73
2023/05/09 10:31:15;;;;;;;7.72;6.95;;;22.10;99.90;;;;;;7386530;19;20757;-73
2023/05/09 10:33:45;;;;;;;7.22;6.45;;;22.10;99.90;;;;;;7385797;19;20840;-73
2023/05/09 10:36:13;;;;;;;7.18;6.05;;;22.20;99.90;;;;;;7386781;19;20595;-74
2023/05/09 10:38:40;;;;;;;10.38;8.00;;;22.20;99.90;;;;;;7380108;19;20130;-73
2023/05/09 10:41:07;;;;;;;7.55;6.40;;;22.20;99.90;;;;;;7385999;19;20135;-73
2023/05/09 10:43:33;;;;;;;8.60;6.82;;;22.30;99.90;;;;;;7383088;19;20130;-73
2023/05/09 10:46:00;;;;;;;9.23;7.65;;;22.40;99.90;;;;;;7385193;19;20563;-73
2023/05/09 10:48:26;;;;;;;7.57;6.70;;;22.30;99.90;;;;;;7385097;19;20525;-75
2023/05/09 10:50:53;;;;;;;7.82;6.50;;;22.50;99.90;;;;;;7383759;19;20145;-74
2023/05/09 10:53:22;;;;;;;9.75;7.10;;;22.60;99.90;;;;;;7384302;19;20162;-75
2023/05/09 10:55:50;;;;;;;7.82;6.30;;;22.50;99.90;;;;;;7383407;19;20138;-75
2023/05/09 10:58:35;;;;;;;7.93;5.90;;;22.60;99.90;;;;;;7383743;19;20139;-75
2023/05/09 11:01:04;;;;;;;8.52;7.03;;;22.70;99.90;;;;;;7383918;19;20218;-75
2023/05/09 11:03:55;;;;;;;9.35;7.28;;;22.70;99.90;;;;;;7387254;19;20122;-75
2023/05/09 11:06:39;;;;;;;9.93;7.72;;;22.70;99.90;;;;;;7386259;19;20153;-74
2023/05/09 11:09:36;;;;;;;8.38;6.82;;;22.60;99.90;;;;;;7384728;19;20142;-76
2023/05/09 11:12:04;;;;;;;7.65;6.80;;;22.70;99.90;;;;;;7385621;19;20199;-75
2023/05/09 11:14:54;;;;;;;10.07;8.25;;;22.70;99.90;;;;;;7387492;19;20138;-77
2023/05/09 11:17:23;;;;;;;9.25;7.38;;;22.80;99.90;;;;;;7387044;19;20214;-74
2023/05/09 11:19:49;;;;;;;10.05;7.10;;;22.60;99.90;;;;;;7380646;19;20242;-75
2023/05/09 11:22:23;;;;;;;7.95;6.82;;;22.40;99.90;;;;;;7384520;19;20143;-76
2023/05/09 11:24:52;;;;;;;7.85;6.15;;;22.40;99.90;;;;;;7383677;19;20137;-76
2023/05/09 11:27:26;;;;;;;7.38;6.25;;;22.50;99.90;;;;;;7385169;19;20150;-75
2023/05/09 11:29:58;;;;;;;9.48;6.57;;;22.60;99.90;;;;;;7385215;19;20134;-74
2023/05/09 11:32:30;;;;;;;7.47;4.78;;;22.60;99.90;;;;;;7385461;19;20151;-75
2023/05/09 11:35:06;;;;;;;6.13;5.20;;;22.90;99.90;;;;;;7384989;19;20488;-75
2023/05/09 11:37:32;;;;;;;5.78;4.63;;;22.90;99.90;;;;;;7385498;19;20701;-75
2023/05/09 11:40:01;;;;;;;11.27;5.50;;;22.90;99.90;;;;;;7392340;19;20296;-75
2023/05/09 11:42:28;;;;;;;7.55;5.85;;;22.90;99.90;;;;;;7390692;19;20149;-76
2023/05/09 11:44:55;;;;;;;3.90;3.50;;;22.80;99.90;;;;;;7389891;19;20146;-75
2023/05/09 11:47:21;;;;;;;4.72;4.03;;;22.80;99.90;;;;;;7396288;19;20452;-75
2023/05/09 11:49:48;;;;;;;5.95;4.40;;;22.70;99.90;;;;;;7394042;19;20303;-74
2023/05/09 11:52:15;;;;;;;5.35;4.10;;;22.70;99.90;;;;;;7396199;19;20214;-79
2023/05/09 11:54:41;;;;;;;5.55;3.72;;;22.60;99.90;;;;;;7391792;19;20151;-74
2023/05/09 11:57:08;;;;;;;4.22;3.28;;;22.60;99.90;;;;;;7392462;19;20131;-73
2023/05/09 11:59:35;;;;;;;5.90;3.15;;;22.50;99.90;;;;;;7391839;19;20184;-75
2023/05/09 12:02:05;;;;;;;3.35;2.80;;;22.30;99.90;;;;;;7390506;19;20166;-74
2023/05/09 12:04:31;;;;;;;3.80;3.22;;;22.30;99.90;;;;;;7389204;19;20167;-76
2023/05/09 12:06:58;;;;;;;3.60;2.53;;;22.50;99.90;;;;;;7390901;19;20139;-76
2023/05/09 12:09:29;;;;;;;3.05;2.58;;;22.60;99.90;;;;;;7389597;19;20138;-75
2023/05/09 12:11:55;;;;;;;2.60;2.40;;;22.70;99.90;;;;;;7392063;19;20536;-75
2023/05/09 12:14:33;;;;;;;2.40;2.20;;;22.60;99.90;;;;;;7390689;19;20142;-74
2023/05/09 12:17:00;;;;;;;2.28;2.08;;;22.70;99.90;;;;;;7390037;19;20137;-75
2023/05/09 12:19:26;;;;;;;3.47;2.95;;;22.90;99.90;;;;;;7388844;19;20182;-76
2023/05/09 12:21:57;;;;;;;2.55;2.33;;;22.90;99.90;;;;;;7388677;19;20768;-76
2023/05/09 12:24:25;;;;;;;3.80;2.90;;;22.80;99.90;;;;;;7388674;19;20202;-75
2023/05/09 12:26:51;;;;;;;3.15;2.85;;;22.50;99.90;;;;;;7391780;19;20482;-75
2023/05/09 12:29:18;;;;;;;3.83;2.85;;;22.60;99.90;;;;;;7389191;19;20134;-76
2023/05/09 12:31:45;;;;;;;3.75;3.00;;;22.60;99.90;;;;;;7390246;19;20231;-76
2023/05/09 12:34:11;;;;;;;3.03;2.80;;;22.80;99.90;;;;;;7388809;19;20170;-75
2023/05/09 12:36:37;;;;;;;3.90;2.83;;;22.80;99.90;;;;;;7389383;19;20147;-76